createdAt,value
2018-11-21T06:34:29.144Z,3.27
2018-11-21T06:36:54.935Z,3.43
2018-11-21T06:39:23.481Z,3.37
2018-11-21T06:41:51.984Z,3.73
2018-11-21T06:44:20.563Z,4.00
2018-11-21T06:46:49.123Z,5.97
2018-11-21T06:49:17.744Z,2.97
2018-11-21T06:51:46.214Z,3.80
2018-11-21T06:54:15.088Z,3.80
2018-11-21T06:56:44.609Z,3.30
2018-11-21T06:59:12.127Z,3.20
2018-11-21T07:01:41.131Z,3.83
2018-11-21T07:04:09.730Z,3.90
2018-11-21T07:06:38.285Z,3.70
2018-11-21T07:09:11.718Z,3.00
2018-11-21T07:11:40.346Z,3.20
2018-11-21T07:14:09.142Z,3.10
2018-11-21T07:16:38.809Z,5.33
2018-11-21T07:19:07.329Z,5.00
2018-11-21T07:21:35.809Z,3.53
2018-11-21T07:24:04.433Z,3.80
2018-11-21T07:26:32.992Z,3.70
2018-11-21T07:29:01.700Z,4.00
2018-11-21T07:31:30.217Z,4.90
2018-11-21T07:36:12.496Z,5.30
2018-11-21T07:38:41.013Z,5.30
2018-11-21T07:41:09.561Z,5.33
2018-11-21T07:43:38.135Z,5.17
2018-11-21T07:46:06.648Z,6.17
2018-11-21T07:48:35.293Z,5.90
2018-11-21T07:51:03.814Z,5.50
2018-11-21T07:53:32.367Z,5.83
2018-11-21T07:56:00.858Z,5.10
2018-11-21T07:58:29.486Z,5.43
2018-11-21T08:01:14.559Z,4.73
2018-11-21T08:03:47.772Z,6.30
2018-11-21T08:06:28.557Z,4.90
2018-11-21T08:09:14.715Z,10.00
2018-11-21T08:12:02.305Z,5.37
2018-11-21T08:14:44.466Z,5.60
2018-11-21T08:17:40.911Z,5.23
2018-11-21T08:20:27.163Z,5.70
2018-11-21T08:23:13.376Z,5.47
2018-11-21T08:26:00.938Z,9.80
2018-11-21T08:28:32.458Z,5.97
2018-11-21T08:31:01.004Z,5.90
2018-11-21T08:33:34.130Z,6.47
2018-11-21T08:35:59.297Z,7.20
2018-11-21T08:38:27.829Z,6.60
2018-11-21T08:40:56.361Z,6.67
2018-11-21T08:43:24.950Z,6.80
2018-11-21T08:45:53.484Z,6.50
2018-11-21T08:48:22.554Z,7.50
2018-11-21T08:50:51.044Z,6.70
2018-11-21T08:53:19.652Z,7.00
2018-11-21T08:55:48.210Z,6.30
2018-11-21T08:58:16.707Z,6.40
2018-11-21T09:00:45.793Z,5.90
2018-11-21T09:03:14.322Z,6.80
2018-11-21T09:05:42.866Z,6.00
2018-11-21T09:08:11.444Z,8.03
2018-11-21T09:10:39.928Z,6.93
2018-11-21T09:13:08.454Z,6.47
2018-11-21T09:15:37.002Z,6.97
2018-11-21T09:18:05.791Z,8.43
2018-11-21T09:20:34.354Z,6.60
2018-11-21T09:23:02.921Z,7.47
2018-11-21T09:25:31.472Z,7.20
2018-11-21T09:28:00.126Z,8.23
2018-11-21T09:30:28.727Z,7.37
2018-11-21T09:32:57.871Z,8.50
2018-11-21T09:35:26.382Z,8.30
2018-11-21T09:37:54.870Z,11.17
2018-11-21T09:40:24.073Z,8.40
2018-11-21T09:42:54.164Z,8.50
2018-11-21T09:45:23.481Z,11.80
2018-11-21T09:47:51.996Z,10.40
2018-11-21T09:50:27.793Z,9.53
2018-11-21T09:52:56.331Z,8.67
2018-11-21T09:55:24.961Z,8.50
2018-11-21T09:57:53.494Z,8.37
2018-11-21T10:00:58.363Z,7.33
2018-11-21T10:03:31.702Z,9.47
2018-11-21T10:06:09.520Z,8.00
2018-11-21T10:08:40.984Z,7.53
2018-11-21T10:11:10.266Z,8.03
2018-11-21T10:13:38.815Z,7.90
2018-11-21T10:16:08.153Z,9.23
2018-11-21T10:18:38.037Z,9.73
2018-11-21T10:21:08.718Z,9.87
2018-11-21T10:23:37.298Z,10.30
2018-11-21T10:26:06.305Z,9.83
2018-11-21T10:28:34.755Z,9.77
2018-11-21T10:31:03.725Z,9.70
2018-11-21T10:33:32.397Z,9.43
2018-11-21T10:36:00.910Z,7.90
2018-11-21T10:38:29.466Z,7.57
2018-11-21T10:40:58.151Z,9.57
2018-11-21T10:43:28.446Z,12.27
2018-11-21T10:45:55.316Z,9.67
2018-11-21T10:48:23.811Z,8.97
2018-11-21T10:50:52.351Z,9.43
2018-11-21T10:53:20.902Z,9.37
2018-11-21T10:55:49.521Z,8.13
2018-11-21T10:58:18.225Z,7.67
2018-11-21T11:01:04.449Z,8.80
2018-11-21T11:03:38.365Z,9.60
2018-11-21T11:06:24.966Z,10.03
2018-11-21T11:09:11.135Z,10.37
2018-11-21T11:12:07.659Z,9.40
2018-11-21T11:14:54.885Z,8.70
2018-11-21T11:17:41.765Z,9.00
2018-11-21T11:20:38.828Z,10.47
2018-11-21T11:23:25.100Z,14.57
2018-11-21T11:26:05.925Z,12.43
2018-11-21T11:28:52.549Z,10.83
2018-11-21T11:31:38.729Z,12.10
2018-11-21T11:34:29.042Z,14.83
2018-11-21T11:37:15.334Z,13.00
2018-11-21T11:40:01.377Z,14.73
2018-11-21T11:42:47.392Z,15.83
2018-11-21T11:45:33.661Z,15.90
2018-11-21T11:48:33.171Z,16.90
2018-11-21T11:51:19.428Z,22.53
2018-11-21T11:54:19.114Z,16.63
2018-11-21T11:57:21.587Z,16.50
2018-11-21T12:00:02.657Z,17.77
2018-11-21T12:02:59.113Z,19.40
2018-11-21T12:05:52.474Z,30.60
2018-11-21T12:08:38.930Z,20.73
2018-11-21T12:11:25.193Z,16.13
2018-11-21T12:14:11.537Z,14.30
2018-11-21T12:16:57.802Z,14.57
2018-11-21T12:19:38.053Z,14.87
2018-11-21T12:22:25.645Z,12.20
2018-11-21T12:25:12.169Z,12.07
2018-11-21T12:27:58.551Z,13.67
2018-11-21T12:30:55.153Z,14.97
2018-11-21T12:33:31.214Z,18.03
2018-11-21T12:36:24.713Z,17.70
2018-11-21T12:39:09.489Z,14.80
2018-11-21T12:41:55.794Z,15.50
2018-11-21T12:44:32.746Z,15.30
2018-11-21T12:47:29.026Z,14.30
2018-11-21T12:50:22.220Z,11.40
2018-11-21T12:53:09.563Z,8.83
2018-11-21T12:55:55.870Z,9.40
2018-11-21T12:58:43.516Z,8.67
2018-11-21T13:01:31.183Z,10.63
2018-11-21T13:04:17.552Z,15.07
2018-11-21T13:07:04.016Z,13.93
2018-11-21T13:09:41.641Z,9.27
2018-11-21T13:12:34.995Z,9.43
2018-11-21T13:15:11.797Z,10.50
2018-11-21T13:17:53.297Z,9.27
2018-11-21T13:20:39.257Z,9.60
2018-11-21T13:23:19.926Z,8.57
2018-11-21T13:26:22.815Z,8.70
2018-11-21T13:29:22.585Z,8.80
2018-11-21T13:32:12.771Z,15.83
2018-11-21T13:34:59.094Z,27.13
2018-11-21T13:37:46.751Z,6.63
2018-11-21T13:40:32.980Z,5.63
2018-11-21T13:43:12.168Z,7.57
2018-11-21T13:46:05.794Z,7.60
2018-11-21T13:49:11.469Z,7.93
2018-11-21T13:51:49.080Z,8.63
2018-11-21T13:54:35.428Z,8.30
2018-11-21T13:57:03.949Z,7.87
2018-11-21T13:59:32.543Z,7.43
2018-11-21T14:02:01.047Z,7.50
2018-11-21T14:04:29.649Z,9.10
2018-11-21T14:06:58.140Z,26.20
2018-11-21T14:09:26.694Z,27.03
2018-11-21T14:11:55.252Z,10.33
2018-11-21T14:14:23.820Z,12.30
2018-11-21T14:16:54.372Z,13.70
2018-11-21T14:19:22.900Z,12.37
2018-11-21T14:21:55.869Z,10.93
2018-11-21T14:24:19.943Z,11.87
2018-11-21T14:26:48.532Z,11.50
2018-11-21T14:29:17.044Z,12.37
2018-11-21T14:31:46.135Z,11.53
2018-11-21T14:34:14.696Z,10.40
2018-11-21T14:36:43.260Z,10.20
2018-11-21T14:39:13.325Z,9.80
2018-11-21T14:41:42.962Z,10.90
2018-11-21T14:44:11.585Z,10.50
2018-11-21T14:46:41.259Z,9.43
2018-11-21T14:49:09.922Z,7.37
2018-11-21T14:51:38.854Z,7.57
2018-11-21T14:54:11.629Z,7.13
2018-11-21T14:56:40.117Z,7.47
2018-11-21T14:59:08.668Z,8.50
2018-11-21T15:01:37.336Z,10.10
2018-11-21T15:04:06.118Z,11.37
2018-11-21T15:06:34.656Z,11.67
2018-11-21T15:09:04.158Z,10.97
2018-11-21T15:11:32.680Z,9.90
2018-11-21T15:14:01.189Z,9.73
2018-11-21T15:16:29.771Z,10.80
2018-11-21T15:18:58.363Z,10.73
2018-11-21T15:21:26.896Z,10.30
2018-11-21T15:23:55.424Z,11.33
2018-11-21T15:26:23.930Z,25.10
2018-11-21T15:28:52.851Z,11.80
2018-11-21T15:31:21.421Z,13.07
2018-11-21T17:37:38.424Z,5.03
2018-11-21T17:40:15.880Z,5.60
2018-11-21T17:42:44.548Z,5.93
2018-11-21T17:45:13.943Z,6.20
2018-11-21T17:47:42.615Z,10.03
2018-11-21T17:50:13.577Z,6.07
2018-11-21T17:52:42.408Z,5.33
2018-11-21T17:55:15.978Z,5.37
2018-11-21T17:57:44.563Z,5.37
2018-11-21T18:00:23.738Z,4.57
2018-11-21T18:02:53.078Z,5.43
2018-11-21T18:05:26.171Z,5.67
2018-11-21T18:07:54.680Z,5.67
2018-11-21T18:10:25.031Z,6.03
2018-11-21T18:12:53.590Z,6.23
2018-11-21T18:15:22.770Z,6.90
2018-11-21T18:17:51.436Z,7.57
2018-11-21T18:20:20.691Z,7.43
2018-11-21T18:22:50.466Z,8.03
2018-11-21T18:25:21.062Z,7.03
2018-11-21T18:27:49.700Z,7.63
2018-11-21T18:30:22.412Z,8.67
2018-11-21T18:32:53.668Z,7.50
2018-11-21T18:35:23.072Z,5.47
2018-11-21T18:37:51.920Z,5.10
2018-11-21T18:40:25.022Z,4.90
2018-11-21T18:42:53.809Z,6.30
2018-11-21T18:45:28.166Z,6.43
2018-11-21T18:47:56.755Z,6.47
2018-11-21T18:50:25.366Z,5.60
2018-11-21T18:52:55.404Z,4.77
2018-11-21T18:55:26.236Z,5.70
2018-11-21T18:58:17.571Z,6.17
2018-11-21T19:00:48.496Z,6.87
2018-11-21T19:03:17.044Z,5.67
2018-11-21T19:05:45.573Z,6.83
2018-11-21T19:08:14.124Z,7.70
2018-11-21T19:10:42.680Z,5.53
2018-11-21T19:13:11.250Z,4.20
2018-11-21T19:15:40.127Z,4.23
2018-11-21T19:18:08.625Z,4.50
2018-11-21T19:20:37.191Z,5.53
2018-11-21T19:23:05.919Z,5.70
2018-11-21T19:25:34.444Z,6.00
2018-11-21T19:28:03.031Z,5.57
2018-11-21T19:30:31.648Z,5.73
2018-11-21T19:33:00.213Z,6.40
2018-11-21T19:35:28.753Z,6.87
2018-11-21T19:37:57.352Z,5.97
2018-11-21T19:40:27.010Z,6.57
2018-11-21T19:42:55.590Z,6.70
2018-11-21T19:45:24.219Z,6.70
2018-11-21T19:47:52.893Z,6.53
2018-11-21T19:50:21.564Z,6.97
2018-11-21T19:52:50.575Z,6.37
2018-11-21T19:55:21.213Z,5.20
2018-11-21T19:57:49.838Z,5.30
2018-11-21T20:00:22.011Z,6.00
2018-11-21T20:02:50.953Z,6.90
2018-11-21T20:05:19.489Z,5.60
2018-11-21T20:07:48.144Z,4.73
2018-11-21T20:10:17.538Z,5.27
2018-11-21T20:12:46.144Z,4.40
2018-11-21T20:15:16.185Z,4.93
2018-11-21T20:17:46.570Z,4.90
2018-11-21T20:20:16.801Z,5.10
2018-11-21T20:22:45.939Z,4.33
2018-11-21T20:25:15.869Z,4.37
2018-11-21T20:27:44.472Z,4.10
2018-11-21T20:30:39.047Z,4.53
2018-11-21T20:33:07.686Z,4.30
2018-11-21T20:35:36.679Z,4.67
2018-11-21T20:38:05.785Z,4.00
2018-11-21T20:40:35.733Z,5.17
2018-11-21T20:43:04.396Z,4.87
2018-11-21T20:45:32.974Z,5.03
2018-11-21T20:48:02.187Z,4.10
2018-11-21T20:50:30.819Z,3.73
2018-11-21T20:53:00.187Z,3.93
2018-11-21T20:55:30.274Z,4.27
2018-11-21T20:57:58.853Z,4.70
2018-11-21T21:00:28.936Z,4.70
2018-11-21T21:02:57.519Z,3.97
2018-11-21T21:05:26.944Z,5.03
2018-11-21T21:07:55.932Z,4.33
2018-11-21T21:10:25.964Z,4.50
2018-11-21T21:12:54.504Z,5.07
2018-11-21T21:15:23.098Z,4.70
2018-11-21T21:17:52.054Z,4.73
2018-11-21T21:20:21.959Z,5.20
2018-11-21T21:22:52.277Z,4.93
2018-11-21T21:25:22.446Z,5.10
2018-11-21T21:27:51.015Z,5.20
2018-11-21T21:30:27.277Z,5.07
2018-11-21T21:32:55.882Z,5.57
2018-11-21T21:35:25.764Z,5.70
2018-11-21T21:37:54.281Z,5.97
2018-11-21T21:40:23.144Z,6.10
2018-11-21T21:42:51.713Z,6.03
2018-11-21T21:45:21.845Z,5.67
2018-11-21T21:47:50.429Z,6.20
2018-11-21T21:50:20.428Z,6.00
2018-11-21T21:52:49.025Z,6.50
2018-11-21T21:55:18.551Z,6.70
2018-11-21T21:57:47.187Z,6.40
2018-11-21T22:00:17.469Z,7.10
2018-11-21T22:02:46.582Z,6.77
2018-11-21T22:05:15.180Z,7.20
2018-11-21T22:07:43.934Z,6.80
2018-11-21T22:10:16.421Z,7.13
2018-11-21T22:12:44.954Z,6.90
2018-11-21T22:15:35.844Z,8.33
2018-11-21T22:18:09.367Z,8.00
2018-11-21T22:20:37.974Z,8.27
2018-11-21T22:23:06.699Z,8.63
2018-11-21T22:25:35.224Z,8.80
2018-11-21T22:28:03.835Z,9.80
2018-11-21T22:30:32.463Z,8.93
2018-11-21T22:33:01.463Z,9.27
2018-11-21T22:35:31.820Z,9.17
2018-11-21T22:38:00.369Z,9.30
2018-11-21T22:40:29.288Z,8.17
2018-11-21T22:42:57.837Z,7.30
2018-11-21T22:45:26.369Z,7.87
2018-11-21T22:47:57.308Z,8.30
2018-11-21T22:50:26.408Z,7.40
2018-11-21T22:52:54.963Z,7.77
2018-11-21T22:55:23.742Z,7.97
2018-11-21T22:57:53.050Z,7.53
2018-11-21T23:00:40.242Z,7.90
2018-11-21T23:03:09.033Z,8.33
2018-11-21T23:05:37.821Z,7.57
2018-11-21T23:08:06.633Z,7.40
2018-11-21T23:10:35.160Z,7.83
2018-11-21T23:13:03.725Z,7.27
2018-11-21T23:15:32.320Z,7.10
2018-11-21T23:18:00.843Z,6.13
2018-11-21T23:20:29.397Z,6.30
2018-11-21T23:22:57.972Z,5.87
2018-11-21T23:25:26.538Z,5.70
2018-11-21T23:27:55.115Z,5.40
2018-11-21T23:30:23.648Z,6.07
2018-11-21T23:32:52.227Z,6.00
2018-11-21T23:35:21.327Z,5.90
2018-11-21T23:37:49.915Z,5.43
2018-11-21T23:40:18.528Z,5.80
2018-11-21T23:42:48.697Z,5.70
2018-11-21T23:45:17.835Z,5.50
2018-11-21T23:47:46.647Z,5.37
2018-11-21T23:50:16.472Z,5.60
2018-11-21T23:52:45.076Z,5.63
2018-11-21T23:55:18.959Z,6.23
2018-11-21T23:57:47.555Z,5.90
